Terminal Aerodrome Forecast
Issued by NWS Wilmington, OH

Current Version | Previous Version | Graphics & Text | Print | Product List | Glossary On
Versions: 1 2 3 4 5 6 7 8 9 10 11 12 13 14 15 16 17 18 19 20 21
000
FTUS41 KILN 220200 AAA
TAFCMH
TAF AMD
KCMH 220245Z 2203/2224 23011KT P6SM VCSH BKN120
     FM221000 24012KT 5SM -SHRA SCT022 BKN035
     FM221300 27014G21KT P6SM OVC035
     FM221500 28022G28KT P6SM BKN050=

USA.gov is the U.S. government's official web portal to all federal, state and local government web resources and services.